sensor_id;sensor_type;location;lat;lon;timestamp;pressure;altitude;pressure_sealevel;temperature;humidity
38880;BME280;25887;30.194;-97.880;2023-05-08T00:02:20;97996.00;;;30.08;37.90
38880;BME280;25887;30.194;-97.880;2023-05-08T00:04:46;98006.03;;;30.05;37.62
38880;BME280;25887;30.194;-97.880;2023-05-08T00:07:13;97994.81;;;30.01;37.68
38880;BME280;25887;30.194;-97.880;2023-05-08T00:09:39;97998.59;;;29.99;37.36
38880;BME280;25887;30.194;-97.880;2023-05-08T00:12:05;98000.53;;;29.96;37.46
38880;BME280;25887;30.194;-97.880;2023-05-08T00:14:32;98000.91;;;29.92;37.25
38880;BME280;25887;30.194;-97.880;2023-05-08T00:16:58;98005.25;;;29.93;37.39
38880;BME280;25887;30.194;-97.880;2023-05-08T00:19:24;98005.38;;;29.91;37.51
38880;BME280;25887;30.194;-97.880;2023-05-08T00:21:50;98000.34;;;29.88;37.34
38880;BME280;25887;30.194;-97.880;2023-05-08T00:24:17;97994.19;;;29.88;37.57
38880;BME280;25887;30.194;-97.880;2023-05-08T00:26:43;97992.78;;;29.84;37.24
38880;BME280;25887;30.194;-97.880;2023-05-08T00:29:10;97998.22;;;29.82;37.41
38880;BME280;25887;30.194;-97.880;2023-05-08T00:31:37;97999.44;;;29.78;37.22
38880;BME280;25887;30.194;-97.880;2023-05-08T00:34:03;98011.97;;;29.76;37.31
38880;BME280;25887;30.194;-97.880;2023-05-08T00:36:29;98018.25;;;29.75;37.65
38880;BME280;25887;30.194;-97.880;2023-05-08T00:38:56;98017.63;;;29.72;37.12
38880;BME280;25887;30.194;-97.880;2023-05-08T00:41:23;98038.13;;;29.69;37.68
38880;BME280;25887;30.194;-97.880;2023-05-08T00:43:49;98048.84;;;29.68;37.77
38880;BME280;25887;30.194;-97.880;2023-05-08T00:46:15;98049.06;;;29.65;37.80
38880;BME280;25887;30.194;-97.880;2023-05-08T00:48:42;98046.69;;;29.62;37.79
38880;BME280;25887;30.194;-97.880;2023-05-08T00:51:09;98045.28;;;29.58;37.88
38880;BME280;25887;30.194;-97.880;2023-05-08T00:53:38;98046.38;;;29.55;38.10
38880;BME280;25887;30.194;-97.880;2023-05-08T00:56:09;98052.06;;;29.51;38.04
38880;BME280;25887;30.194;-97.880;2023-05-08T00:58:36;98055.88;;;29.47;38.34
38880;BME280;25887;30.194;-97.880;2023-05-08T01:01:03;98057.94;;;29.43;38.40
38880;BME280;25887;30.194;-97.880;2023-05-08T01:03:31;98070.44;;;29.41;38.31
38880;BME280;25887;30.194;-97.880;2023-05-08T01:05:57;98080.47;;;29.37;38.24
38880;BME280;25887;30.194;-97.880;2023-05-08T01:08:24;98082.41;;;29.35;38.43
38880;BME280;25887;30.194;-97.880;2023-05-08T01:11:00;98079.97;;;29.32;38.89
38880;BME280;25887;30.194;-97.880;2023-05-08T01:14:20;98075.09;;;29.28;39.03
38880;BME280;25887;30.194;-97.880;2023-05-08T01:30:42;98081.63;;;29.01;39.72
38880;BME280;25887;30.194;-97.880;2023-05-08T01:33:39;98081.03;;;28.98;39.41
38880;BME280;25887;30.194;-97.880;2023-05-08T01:36:33;98093.53;;;28.96;40.00
38880;BME280;25887;30.194;-97.880;2023-05-08T01:39:19;98087.66;;;28.92;39.82
38880;BME280;25887;30.194;-97.880;2023-05-08T01:44:42;98112.72;;;28.86;39.97
38880;BME280;25887;30.194;-97.880;2023-05-08T01:47:11;98107.69;;;28.83;40.12
38880;BME280;25887;30.194;-97.880;2023-05-08T01:49:48;98112.16;;;28.83;39.87
38880;BME280;25887;30.194;-97.880;2023-05-08T01:55:39;98132.22;;;28.74;40.56
38880;BME280;25887;30.194;-97.880;2023-05-08T01:58:11;98135.97;;;28.72;40.30
38880;BME280;25887;30.194;-97.880;2023-05-08T02:00:39;98144.94;;;28.69;40.47
38880;BME280;25887;30.194;-97.880;2023-05-08T02:03:07;98139.28;;;28.63;40.33
38880;BME280;25887;30.194;-97.880;2023-05-08T02:05:36;98141.09;;;28.62;40.84
38880;BME280;25887;30.194;-97.880;2023-05-08T02:08:04;98141.56;;;28.56;41.10
38880;BME280;25887;30.194;-97.880;2023-05-08T02:10:32;98144.47;;;28.53;40.90
38880;BME280;25887;30.194;-97.880;2023-05-08T02:13:03;98145.66;;;28.49;41.30
38880;BME280;25887;30.194;-97.880;2023-05-08T02:15:32;98156.44;;;28.46;41.16
38880;BME280;25887;30.194;-97.880;2023-05-08T02:18:03;98171.84;;;28.41;41.21
38880;BME280;25887;30.194;-97.880;2023-05-08T02:20:30;98182.50;;;28.39;41.49
38880;BME280;25887;30.194;-97.880;2023-05-08T02:22:58;98190.56;;;28.38;41.33
38880;BME280;25887;30.194;-97.880;2023-05-08T02:25:26;98201.38;;;28.35;41.38
38880;BME280;25887;30.194;-97.880;2023-05-08T02:27:53;98218.19;;;28.34;41.82
38880;BME280;25887;30.194;-97.880;2023-05-08T02:30:21;98228.75;;;28.34;41.52
38880;BME280;25887;30.194;-97.880;2023-05-08T02:32:50;98240.25;;;28.33;42.16
38880;BME280;25887;30.194;-97.880;2023-05-08T02:35:19;98254.34;;;28.33;41.90
38880;BME280;25887;30.194;-97.880;2023-05-08T02:37:54;98262.25;;;28.33;42.00
38880;BME280;25887;30.194;-97.880;2023-05-08T02:40:25;98269.31;;;28.33;42.35
38880;BME280;25887;30.194;-97.880;2023-05-08T02:42:53;98278.97;;;28.34;42.51
38880;BME280;25887;30.194;-97.880;2023-05-08T02:45:25;98276.31;;;28.34;42.08
38880;BME280;25887;30.194;-97.880;2023-05-08T02:51:28;98279.78;;;28.34;42.39
38880;BME280;25887;30.194;-97.880;2023-05-08T02:53:39;98279.16;;;28.30;42.22
38880;BME280;25887;30.194;-97.880;2023-05-08T02:56:37;98272.41;;;28.26;42.31
38880;BME280;25887;30.194;-97.880;2023-05-08T02:59:28;98286.56;;;28.25;42.47
38880;BME280;25887;30.194;-97.880;2023-05-08T03:02:22;98275.50;;;28.20;43.00
38880;BME280;25887;30.194;-97.880;2023-05-08T03:04:59;98287.22;;;28.16;42.68
38880;BME280;25887;30.194;-97.880;2023-05-08T03:07:28;98292.75;;;28.13;43.17
38880;BME280;25887;30.194;-97.880;2023-05-08T03:10:04;98294.66;;;28.11;43.13
38880;BME280;25887;30.194;-97.880;2023-05-08T03:12:36;98294.03;;;28.08;43.46
38880;BME280;25887;30.194;-97.880;2023-05-08T03:17:43;98304.94;;;28.03;43.26
38880;BME280;25887;30.194;-97.880;2023-05-08T03:20:14;98328.72;;;28.03;43.98
38880;BME280;25887;30.194;-97.880;2023-05-08T03:22:42;98327.03;;;28.02;43.93
38880;BME280;25887;30.194;-97.880;2023-05-08T03:25:10;98327.97;;;28.01;44.25
38880;BME280;25887;30.194;-97.880;2023-05-08T03:27:40;98330.72;;;27.99;43.87
38880;BME280;25887;30.194;-97.880;2023-05-08T03:30:08;98337.78;;;27.99;44.05
38880;BME280;25887;30.194;-97.880;2023-05-08T03:32:36;98340.56;;;27.97;44.25
38880;BME280;25887;30.194;-97.880;2023-05-08T03:35:04;98336.44;;;27.93;44.42
38880;BME280;25887;30.194;-97.880;2023-05-08T03:37:31;98341.94;;;27.90;44.33
38880;BME280;25887;30.194;-97.880;2023-05-08T03:39:58;98339.63;;;27.86;44.39
38880;BME280;25887;30.194;-97.880;2023-05-08T03:42:25;98335.53;;;27.82;44.64
38880;BME280;25887;30.194;-97.880;2023-05-08T03:44:52;98339.31;;;27.77;44.97
38880;BME280;25887;30.194;-97.880;2023-05-08T03:47:20;98332.59;;;27.73;45.41
38880;BME280;25887;30.194;-97.880;2023-05-08T03:49:48;98326.88;;;27.67;45.19
38880;BME280;25887;30.194;-97.880;2023-05-08T03:52:15;98319.25;;;27.62;45.05
38880;BME280;25887;30.194;-97.880;2023-05-08T03:54:41;98310.09;;;27.55;45.60
38880;BME280;25887;30.194;-97.880;2023-05-08T03:57:08;98314.00;;;27.49;45.58
38880;BME280;25887;30.194;-97.880;2023-05-08T03:59:50;98321.28;;;27.46;45.45
38880;BME280;25887;30.194;-97.880;2023-05-08T04:02:43;98316.53;;;27.38;45.60
38880;BME280;25887;30.194;-97.880;2023-05-08T04:05:49;98307.06;;;27.36;45.84
38880;BME280;25887;30.194;-97.880;2023-05-08T04:08:30;98318.88;;;27.30;45.86
38880;BME280;25887;30.194;-97.880;2023-05-08T04:11:09;98308.75;;;27.24;46.07
38880;BME280;25887;30.194;-97.880;2023-05-08T04:13:44;98291.75;;;27.15;46.75
38880;BME280;25887;30.194;-97.880;2023-05-08T04:16:21;98286.16;;;27.07;47.17
38880;BME280;25887;30.194;-97.880;2023-05-08T04:18:57;98297.13;;;27.01;46.86
38880;BME280;25887;30.194;-97.880;2023-05-08T04:21:25;98286.66;;;27.00;47.18
38880;BME280;25887;30.194;-97.880;2023-05-08T04:23:55;98282.97;;;26.89;47.45
38880;BME280;25887;30.194;-97.880;2023-05-08T04:26:22;98276.13;;;26.87;47.59
38880;BME280;25887;30.194;-97.880;2023-05-08T04:28:48;98271.78;;;26.86;48.01
38880;BME280;25887;30.194;-97.880;2023-05-08T04:31:15;98267.66;;;26.82;48.55
38880;BME280;25887;30.194;-97.880;2023-05-08T04:33:44;98262.81;;;26.76;48.51
38880;BME280;25887;30.194;-97.880;2023-05-08T04:36:12;98263.88;;;26.73;48.38
38880;BME280;25887;30.194;-97.880;2023-05-08T04:38:42;98253.44;;;26.72;48.71
38880;BME280;25887;30.194;-97.880;2023-05-08T04:41:08;98246.66;;;26.67;49.02
38880;BME280;25887;30.194;-97.880;2023-05-08T04:43:35;98233.72;;;26.64;49.53
38880;BME280;25887;30.194;-97.880;2023-05-08T04:46:04;98233.81;;;26.63;49.49
38880;BME280;25887;30.194;-97.880;2023-05-08T04:48:32;98228.00;;;26.58;50.00
38880;BME280;25887;30.194;-97.880;2023-05-08T04:50:58;98244.88;;;26.55;49.59
38880;BME280;25887;30.194;-97.880;2023-05-08T04:53:25;98284.41;;;26.55;49.88
38880;BME280;25887;30.194;-97.880;2023-05-08T04:55:53;98347.44;;;26.58;49.80
38880;BME280;25887;30.194;-97.880;2023-05-08T04:58:19;98369.06;;;26.63;50.02
38880;BME280;25887;30.194;-97.880;2023-05-08T05:00:45;98365.38;;;26.66;49.85
38880;BME280;25887;30.194;-97.880;2023-05-08T05:03:12;98360.94;;;26.66;49.88
38880;BME280;25887;30.194;-97.880;2023-05-08T05:05:38;98367.78;;;26.69;49.90
38880;BME280;25887;30.194;-97.880;2023-05-08T05:08:04;98379.09;;;26.71;49.76
38880;BME280;25887;30.194;-97.880;2023-05-08T05:10:30;98371.81;;;26.75;49.86
38880;BME280;25887;30.194;-97.880;2023-05-08T05:12:56;98377.75;;;26.78;50.26
38880;BME280;25887;30.194;-97.880;2023-05-08T05:15:23;98374.06;;;26.81;50.30
38880;BME280;25887;30.194;-97.880;2023-05-08T05:17:49;98375.75;;;26.82;50.33
38880;BME280;25887;30.194;-97.880;2023-05-08T05:20:15;98383.53;;;26.83;50.22
38880;BME280;25887;30.194;-97.880;2023-05-08T05:22:42;98385.22;;;26.84;50.01
38880;BME280;25887;30.194;-97.880;2023-05-08T05:25:08;98390.50;;;26.84;50.29
38880;BME280;25887;30.194;-97.880;2023-05-08T05:27:34;98396.66;;;26.85;50.05
38880;BME280;25887;30.194;-97.880;2023-05-08T05:30:04;98395.69;;;26.86;50.06
38880;BME280;25887;30.194;-97.880;2023-05-08T05:32:30;98394.00;;;26.85;50.49
38880;BME280;25887;30.194;-97.880;2023-05-08T05:34:56;98382.59;;;26.84;50.48
38880;BME280;25887;30.194;-97.880;2023-05-08T05:37:23;98382.41;;;26.87;50.33
38880;BME280;25887;30.194;-97.880;2023-05-08T05:39:49;98367.53;;;26.86;50.19
38880;BME280;25887;30.194;-97.880;2023-05-08T05:42:16;98366.69;;;26.86;50.64
38880;BME280;25887;30.194;-97.880;2023-05-08T05:44:42;98358.88;;;26.84;50.68
38880;BME280;25887;30.194;-97.880;2023-05-08T05:47:08;98359.75;;;26.85;50.33
38880;BME280;25887;30.194;-97.880;2023-05-08T05:49:35;98360.47;;;26.87;50.87
38880;BME280;25887;30.194;-97.880;2023-05-08T05:52:01;98352.69;;;26.85;50.44
38880;BME280;25887;30.194;-97.880;2023-05-08T05:54:27;98352.69;;;26.85;50.49
38880;BME280;25887;30.194;-97.880;2023-05-08T05:56:54;98350.03;;;26.85;50.88
38880;BME280;25887;30.194;-97.880;2023-05-08T05:59:20;98333.38;;;26.85;50.59
38880;BME280;25887;30.194;-97.880;2023-05-08T06:01:46;98343.94;;;26.85;50.77
38880;BME280;25887;30.194;-97.880;2023-05-08T06:04:13;98338.72;;;26.83;50.85
38880;BME280;25887;30.194;-97.880;2023-05-08T06:06:39;98317.97;;;26.79;51.23
38880;BME280;25887;30.194;-97.880;2023-05-08T06:09:05;98334.63;;;26.79;51.15
38880;BME280;25887;30.194;-97.880;2023-05-08T06:11:31;98311.00;;;26.78;51.20
38880;BME280;25887;30.194;-97.880;2023-05-08T06:14:31;98306.78;;;26.75;51.31
38880;BME280;25887;30.194;-97.880;2023-05-08T06:16:57;98300.97;;;26.70;51.46
38880;BME280;25887;30.194;-97.880;2023-05-08T06:19:25;98301.06;;;26.69;51.24
38880;BME280;25887;30.194;-97.880;2023-05-08T06:21:53;98301.16;;;26.67;51.43
38880;BME280;25887;30.194;-97.880;2023-05-08T06:24:19;98296.00;;;26.65;51.68
38880;BME280;25887;30.194;-97.880;2023-05-08T06:26:45;98290.09;;;26.62;51.92
38880;BME280;25887;30.194;-97.880;2023-05-08T06:29:12;98283.34;;;26.58;51.80
38880;BME280;25887;30.194;-97.880;2023-05-08T06:31:38;98272.91;;;26.56;51.71
38880;BME280;25887;30.194;-97.880;2023-05-08T06:34:04;98275.53;;;26.56;51.87
38880;BME280;25887;30.194;-97.880;2023-05-08T06:36:30;98273.03;;;26.55;51.99
38880;BME280;25887;30.194;-97.880;2023-05-08T06:38:57;98274.69;;;26.56;52.17
38880;BME280;25887;30.194;-97.880;2023-05-08T06:41:23;98265.97;;;26.55;52.14
38880;BME280;25887;30.194;-97.880;2023-05-08T06:43:49;98256.38;;;26.54;52.30
38880;BME280;25887;30.194;-97.880;2023-05-08T06:46:15;98256.25;;;26.56;51.92
38880;BME280;25887;30.194;-97.880;2023-05-08T06:48:42;98245.81;;;26.54;52.01
38880;BME280;25887;30.194;-97.880;2023-05-08T06:51:08;98244.03;;;26.55;52.35
38880;BME280;25887;30.194;-97.880;2023-05-08T06:53:34;98235.28;;;26.54;52.20
38880;BME280;25887;30.194;-97.880;2023-05-08T06:56:00;98232.00;;;26.51;52.28
38880;BME280;25887;30.194;-97.880;2023-05-08T06:58:26;98203.97;;;26.50;52.30
38880;BME280;25887;30.194;-97.880;2023-05-08T07:00:52;98191.84;;;26.47;52.57
38880;BME280;25887;30.194;-97.880;2023-05-08T07:03:18;98180.56;;;26.45;52.61
38880;BME280;25887;30.194;-97.880;2023-05-08T07:05:45;98176.44;;;26.41;52.88
38880;BME280;25887;30.194;-97.880;2023-05-08T07:08:14;98170.50;;;26.37;52.98
38880;BME280;25887;30.194;-97.880;2023-05-08T07:10:40;98166.41;;;26.33;52.85
38880;BME280;25887;30.194;-97.880;2023-05-08T07:13:06;98153.34;;;26.32;53.01
38880;BME280;25887;30.194;-97.880;2023-05-08T07:15:32;98143.94;;;26.28;53.15
38880;BME280;25887;30.194;-97.880;2023-05-08T07:17:59;98138.06;;;26.24;53.31
38880;BME280;25887;30.194;-97.880;2023-05-08T07:20:25;98127.72;;;26.21;53.58
38880;BME280;25887;30.194;-97.880;2023-05-08T07:22:52;98127.19;;;26.16;53.51
38880;BME280;25887;30.194;-97.880;2023-05-08T07:25:18;98133.50;;;26.14;53.65
38880;BME280;25887;30.194;-97.880;2023-05-08T07:27:45;98131.09;;;26.10;53.63
38880;BME280;25887;30.194;-97.880;2023-05-08T07:30:12;98122.63;;;26.05;54.05
38880;BME280;25887;30.194;-97.880;2023-05-08T07:32:38;98119.38;;;26.02;53.93
38880;BME280;25887;30.194;-97.880;2023-05-08T07:38:26;98109.34;;;25.94;54.25
38880;BME280;25887;30.194;-97.880;2023-05-08T07:40:52;98097.16;;;25.93;54.10
38880;BME280;25887;30.194;-97.880;2023-05-08T07:43:22;98088.31;;;25.94;54.16
38880;BME280;25887;30.194;-97.880;2023-05-08T07:45:49;98078.72;;;25.93;54.38
38880;BME280;25887;30.194;-97.880;2023-05-08T07:48:15;98063.97;;;25.91;54.42
38880;BME280;25887;30.194;-97.880;2023-05-08T07:50:41;98052.59;;;25.90;54.64
38880;BME280;25887;30.194;-97.880;2023-05-08T07:53:07;98060.47;;;25.90;54.59
38880;BME280;25887;30.194;-97.880;2023-05-08T07:55:33;98062.16;;;25.91;54.35
38880;BME280;25887;30.194;-97.880;2023-05-08T07:58:00;98053.53;;;25.89;54.66
38880;BME280;25887;30.194;-97.880;2023-05-08T08:00:26;98059.75;;;25.88;54.84
38880;BME280;25887;30.194;-97.880;2023-05-08T08:02:52;98079.13;;;25.87;54.70
38880;BME280;25887;30.194;-97.880;2023-05-08T08:05:19;98093.97;;;25.88;54.75
38880;BME280;25887;30.194;-97.880;2023-05-08T08:07:45;98104.50;;;25.88;54.81
38880;BME280;25887;30.194;-97.880;2023-05-08T08:10:11;98125.56;;;25.88;55.08
38880;BME280;25887;30.194;-97.880;2023-05-08T08:12:38;98128.28;;;25.87;54.86
38880;BME280;25887;30.194;-97.880;2023-05-08T08:15:04;98142.28;;;25.87;55.13
38880;BME280;25887;30.194;-97.880;2023-05-08T08:17:31;98137.03;;;25.87;54.97
38880;BME280;25887;30.194;-97.880;2023-05-08T08:19:57;98139.88;;;25.84;55.35
38880;BME280;25887;30.194;-97.880;2023-05-08T08:22:24;98136.31;;;25.85;55.23
38880;BME280;25887;30.194;-97.880;2023-05-08T08:24:51;98129.25;;;25.86;55.25
38880;BME280;25887;30.194;-97.880;2023-05-08T08:27:19;98133.75;;;25.83;55.44
38880;BME280;25887;30.194;-97.880;2023-05-08T08:29:45;98136.47;;;25.82;55.46
38880;BME280;25887;30.194;-97.880;2023-05-08T08:32:11;98131.31;;;25.80;55.54
38880;BME280;25887;30.194;-97.880;2023-05-08T08:34:37;98138.38;;;25.80;55.91
38880;BME280;25887;30.194;-97.880;2023-05-08T08:37:05;98142.91;;;25.78;55.86
38880;BME280;25887;30.194;-97.880;2023-05-08T08:39:34;98145.66;;;25.76;55.66
38880;BME280;25887;30.194;-97.880;2023-05-08T08:42:00;98135.75;;;25.80;55.88
38880;BME280;25887;30.194;-97.880;2023-05-08T08:44:27;98118.16;;;25.80;55.81
38880;BME280;25887;30.194;-97.880;2023-05-08T08:46:54;98119.97;;;25.80;56.27
38880;BME280;25887;30.194;-97.880;2023-05-08T08:49:30;98133.84;;;25.82;56.30
38880;BME280;25887;30.194;-97.880;2023-05-08T08:54:48;98168.72;;;25.86;56.34
38880;BME280;25887;30.194;-97.880;2023-05-08T08:57:16;98185.16;;;25.89;56.34
38880;BME280;25887;30.194;-97.880;2023-05-08T08:59:43;98185.03;;;25.91;56.42
38880;BME280;25887;30.194;-97.880;2023-05-08T09:02:11;98197.19;;;25.93;56.39
38880;BME280;25887;30.194;-97.880;2023-05-08T09:04:42;98196.97;;;25.96;56.26
38880;BME280;25887;30.194;-97.880;2023-05-08T09:07:10;98204.97;;;25.95;56.09
38880;BME280;25887;30.194;-97.880;2023-05-08T09:09:39;98211.91;;;25.96;56.38
38880;BME280;25887;30.194;-97.880;2023-05-08T09:12:09;98204.97;;;25.95;56.73
38880;BME280;25887;30.194;-97.880;2023-05-08T09:14:35;98215.28;;;25.98;56.59
38880;BME280;25887;30.194;-97.880;2023-05-08T09:17:03;98233.72;;;25.98;56.61
38880;BME280;25887;30.194;-97.880;2023-05-08T09:19:30;98240.66;;;25.99;56.56
38880;BME280;25887;30.194;-97.880;2023-05-08T09:21:59;98216.13;;;25.98;56.81
38880;BME280;25887;30.194;-97.880;2023-05-08T09:27:23;98219.72;;;25.97;56.67
38880;BME280;25887;30.194;-97.880;2023-05-08T09:30:07;98211.81;;;25.97;56.92
38880;BME280;25887;30.194;-97.880;2023-05-08T09:32:36;98204.13;;;25.94;56.72
38880;BME280;25887;30.194;-97.880;2023-05-08T09:35:04;98196.22;;;25.94;56.69
38880;BME280;25887;30.194;-97.880;2023-05-08T09:37:30;98203.28;;;25.94;57.08
38880;BME280;25887;30.194;-97.880;2023-05-08T09:40:17;98209.19;;;25.97;56.77
38880;BME280;25887;30.194;-97.880;2023-05-08T09:42:45;98222.56;;;25.94;57.12
38880;BME280;25887;30.194;-97.880;2023-05-08T09:45:28;98226.13;;;25.93;56.89
38880;BME280;25887;30.194;-97.880;2023-05-08T09:47:54;98227.09;;;25.92;56.99
38880;BME280;25887;30.194;-97.880;2023-05-08T09:50:20;98223.59;;;25.92;57.16
38880;BME280;25887;30.194;-97.880;2023-05-08T09:52:47;98226.13;;;25.93;56.86
38880;BME280;25887;30.194;-97.880;2023-05-08T09:55:15;98226.97;;;25.94;57.01
38880;BME280;25887;30.194;-97.880;2023-05-08T09:57:55;98220.66;;;25.96;57.25
38880;BME280;25887;30.194;-97.880;2023-05-08T10:00:27;98223.28;;;25.96;57.25
38880;BME280;25887;30.194;-97.880;2023-05-08T10:02:58;98223.28;;;25.96;57.44
38880;BME280;25887;30.194;-97.880;2023-05-08T10:05:29;98237.19;;;25.98;57.55
38880;BME280;25887;30.194;-97.880;2023-05-08T10:07:57;98231.00;;;25.99;57.39
38880;BME280;25887;30.194;-97.880;2023-05-08T10:10:25;98233.63;;;25.99;57.45
38880;BME280;25887;30.194;-97.880;2023-05-08T10:12:54;98238.91;;;25.99;57.48
38880;BME280;25887;30.194;-97.880;2023-05-08T10:15:27;98236.28;;;25.99;57.39
38880;BME280;25887;30.194;-97.880;2023-05-08T10:18:03;98227.50;;;25.99;57.43
38880;BME280;25887;30.194;-97.880;2023-05-08T10:20:31;98238.91;;;25.99;57.44
38880;BME280;25887;30.194;-97.880;2023-05-08T10:22:58;98231.09;;;25.98;57.42
38880;BME280;25887;30.194;-97.880;2023-05-08T10:25:25;98220.75;;;25.95;57.55
38880;BME280;25887;30.194;-97.880;2023-05-08T10:27:58;98224.34;;;25.94;57.87
38880;BME280;25887;30.194;-97.880;2023-05-08T10:30:33;98220.97;;;25.92;57.83
38880;BME280;25887;30.194;-97.880;2023-05-08T10:33:08;98213.06;;;25.92;57.99
38880;BME280;25887;30.194;-97.880;2023-05-08T10:35:36;98212.19;;;25.91;58.13
38880;BME280;25887;30.194;-97.880;2023-05-08T10:38:03;98206.94;;;25.91;57.82
38880;BME280;25887;30.194;-97.880;2023-05-08T10:40:29;98211.47;;;25.89;57.97
38880;BME280;25887;30.194;-97.880;2023-05-08T10:42:56;98208.72;;;25.91;58.32
38880;BME280;25887;30.194;-97.880;2023-05-08T10:45:23;98211.47;;;25.89;57.95
38880;BME280;25887;30.194;-97.880;2023-05-08T10:48:15;98213.16;;;25.90;58.24
38880;BME280;25887;30.194;-97.880;2023-05-08T10:50:59;98218.53;;;25.89;58.19
38880;BME280;25887;30.194;-97.880;2023-05-08T10:56:03;98228.22;;;25.88;58.58
38880;BME280;25887;30.194;-97.880;2023-05-08T10:58:35;98222.00;;;25.89;58.41
38880;BME280;25887;30.194;-97.880;2023-05-08T11:03:44;98230.94;;;25.87;58.66
38880;BME280;25887;30.194;-97.880;2023-05-08T11:06:10;98223.91;;;25.87;58.66
38880;BME280;25887;30.194;-97.880;2023-05-08T11:08:48;98221.25;;;25.87;58.75
38880;BME280;25887;30.194;-97.880;2023-05-08T11:11:26;98229.16;;;25.87;58.67
38880;BME280;25887;30.194;-97.880;2023-05-08T11:13:57;98223.16;;;25.85;58.83
38880;BME280;25887;30.194;-97.880;2023-05-08T11:19:23;98220.69;;;25.82;59.02
38880;BME280;25887;30.194;-97.880;2023-05-08T11:24:52;98215.53;;;25.80;59.33
38880;BME280;25887;30.194;-97.880;2023-05-08T11:30:38;98208.59;;;25.79;59.19
38880;BME280;25887;30.194;-97.880;2023-05-08T11:36:15;98221.53;;;25.82;59.07
38880;BME280;25887;30.194;-97.880;2023-05-08T11:39:08;98223.16;;;25.85;59.34
38880;BME280;25887;30.194;-97.880;2023-05-08T11:41:37;98217.13;;;25.83;59.49
38880;BME280;25887;30.194;-97.880;2023-05-08T11:49:01;98210.72;;;25.87;59.48
38880;BME280;25887;30.194;-97.880;2023-05-08T11:51:31;98220.22;;;25.90;59.43
38880;BME280;25887;30.194;-97.880;2023-05-08T11:53:59;98218.41;;;25.90;59.49
38880;BME280;25887;30.194;-97.880;2023-05-08T11:56:25;98213.06;;;25.92;59.36
38880;BME280;25887;30.194;-97.880;2023-05-08T11:59:05;98201.59;;;25.93;59.40
38880;BME280;25887;30.194;-97.880;2023-05-08T12:01:33;98200.84;;;25.91;59.79
38880;BME280;25887;30.194;-97.880;2023-05-08T12:04:08;98202.56;;;25.92;59.78
38880;BME280;25887;30.194;-97.880;2023-05-08T12:06:34;98190.97;;;25.94;59.30
38880;BME280;25887;30.194;-97.880;2023-05-08T12:09:03;98174.44;;;25.92;59.78
38880;BME280;25887;30.194;-97.880;2023-05-08T12:11:34;98178.84;;;25.92;59.33
38880;BME280;25887;30.194;-97.880;2023-05-08T12:14:00;98186.84;;;25.90;59.65
38880;BME280;25887;30.194;-97.880;2023-05-08T12:16:26;98196.41;;;25.91;59.77
38880;BME280;25887;30.194;-97.880;2023-05-08T12:18:55;98199.81;;;25.93;59.94
38880;BME280;25887;30.194;-97.880;2023-05-08T12:21:21;98202.44;;;25.93;60.00
38880;BME280;25887;30.194;-97.880;2023-05-08T12:23:48;98201.59;;;25.93;59.93
38880;BME280;25887;30.194;-97.880;2023-05-08T12:26:14;98202.44;;;25.93;60.11
38880;BME280;25887;30.194;-97.880;2023-05-08T12:28:43;98205.06;;;25.93;60.19
38880;BME280;25887;30.194;-97.880;2023-05-08T12:31:11;98210.22;;;25.95;60.18
38880;BME280;25887;30.194;-97.880;2023-05-08T12:33:37;98217.41;;;25.93;60.19
38880;BME280;25887;30.194;-97.880;2023-05-08T12:36:04;98225.19;;;25.94;60.28
38880;BME280;25887;30.194;-97.880;2023-05-08T12:38:31;98227.81;;;25.94;60.29
38880;BME280;25887;30.194;-97.880;2023-05-08T12:40:57;98219.81;;;25.96;60.45
38880;BME280;25887;30.194;-97.880;2023-05-08T12:43:32;98212.66;;;25.98;60.18
38880;BME280;25887;30.194;-97.880;2023-05-08T12:45:59;98205.69;;;25.97;60.18
38880;BME280;25887;30.194;-97.880;2023-05-08T12:48:26;98211.72;;;25.99;60.63
38880;BME280;25887;30.194;-97.880;2023-05-08T12:51:03;98212.59;;;25.99;60.66
38880;BME280;25887;30.194;-97.880;2023-05-08T12:53:31;98212.59;;;25.99;60.42
38880;BME280;25887;30.194;-97.880;2023-05-08T12:56:01;98213.50;;;25.98;60.83
38880;BME280;25887;30.194;-97.880;2023-05-08T12:58:32;98213.41;;;26.00;60.58
38880;BME280;25887;30.194;-97.880;2023-05-08T13:01:11;98208.16;;;26.00;60.79
38880;BME280;25887;30.194;-97.880;2023-05-08T13:03:39;98214.34;;;25.99;60.89
38880;BME280;25887;30.194;-97.880;2023-05-08T13:06:06;98215.50;;;25.95;60.78
38880;BME280;25887;30.194;-97.880;2023-05-08T13:08:51;98224.03;;;25.98;61.12
38880;BME280;25887;30.194;-97.880;2023-05-08T13:11:31;98224.03;;;25.98;60.89
38880;BME280;25887;30.194;-97.880;2023-05-08T13:13:58;98222.25;;;25.99;60.89
38880;BME280;25887;30.194;-97.880;2023-05-08T13:16:25;98224.88;;;25.99;60.82
38880;BME280;25887;30.194;-97.880;2023-05-08T13:18:51;98222.06;;;26.02;61.06
38880;BME280;25887;30.194;-97.880;2023-05-08T13:21:18;98221.22;;;26.01;61.11
38880;BME280;25887;30.194;-97.880;2023-05-08T13:23:44;98227.31;;;26.02;61.39
38880;BME280;25887;30.194;-97.880;2023-05-08T13:26:10;98223.00;;;26.01;61.26
38880;BME280;25887;30.194;-97.880;2023-05-08T13:28:37;98223.09;;;25.99;61.62
38880;BME280;25887;30.194;-97.880;2023-05-08T13:31:03;98216.13;;;25.98;61.58
38880;BME280;25887;30.194;-97.880;2023-05-08T13:33:29;98222.34;;;25.97;61.36
38880;BME280;25887;30.194;-97.880;2023-05-08T13:35:55;98224.97;;;25.97;61.97
38880;BME280;25887;30.194;-97.880;2023-05-08T13:38:21;98214.56;;;25.96;61.64
38880;BME280;25887;30.194;-97.880;2023-05-08T13:40:49;98207.72;;;25.93;62.21
38880;BME280;25887;30.194;-97.880;2023-05-08T13:43:15;98210.44;;;25.92;62.48
38880;BME280;25887;30.194;-97.880;2023-05-08T13:45:41;98207.88;;;25.90;62.18
38880;BME280;25887;30.194;-97.880;2023-05-08T13:48:08;98214.84;;;25.91;62.44
38880;BME280;25887;30.194;-97.880;2023-05-08T13:50:34;98211.28;;;25.92;62.21